Flight Track Log - Related Links

Times and Time Zones

All times are in EDT time to prevent confusion due to time zone crossing. See the SKW6492 flight status page for this flight to view local times or setup timezone preferences in your user account.

Time Position Orientation Groundspeed Altitude Reporting Facility
EDT Latitude Longitude Course Direction KTS MPH feet Rate Location/Type
Wed 09:42:50 PM 39.8458 -104.7636 346° North 172 198 7,000  Level Denver Center
Wed 09:43:52 PM 39.8822 -104.8356 303° West 237 273 8,700 1,742 Climbing Denver Center
Wed 09:44:54 PM 39.9539 -104.8539 349° North 270 311 10,600 1,984 Climbing Denver Center
Wed 09:45:00 PM 40.2787 -104.8052 347° North  Level FlightAware Approximate
Wed 09:45:56 PM 40.0456 -104.8544 360° North 300 345 12,800  Level Denver Center
Wed 09:46:00 PM 40.3860 -104.8398 346° North  Level FlightAware Approximate
Wed 09:46:57 PM 40.1350 -104.8539 360° North 320 368 14,900  Level Denver Center
Wed 09:47:00 PM 40.4932 -104.8755 346° North  Level FlightAware Approximate
Wed 09:47:59 PM 40.2278 -104.8522 North 331 381 16,600  Level Denver Center
Wed 09:49:01 PM 40.3275 -104.8528 360° North 339 390 18,100 1,415 Climbing Denver Center
Wed 09:50:02 PM 40.4253 -104.8508 North 352 405 19,500 1,463 Climbing Denver Center
Wed 09:51:04 PM 40.5308 -104.8533 359° North 355 409 21,100 1,452 Climbing Denver Center
Wed 09:52:06 PM 40.6339 -104.8511 North 370 426 22,500 1,220 Climbing Denver Center
Wed 09:53:07 PM 40.7436 -104.8500 360° North 372 428 23,600 1,122 Climbing Denver Center
Wed 09:54:09 PM 40.8497 -104.8844 346° North 396 456 24,800 1,016 Climbing Denver Center
Wed 09:55:11 PM 40.9497 -104.9303 341° North 398 458 25,700 927 Climbing Denver Center
Wed 09:56:12 PM 41.0531 -104.9808 340° North 409 471 26,700 976 Climbing Denver Center
Wed 09:57:14 PM 41.1733 -105.0400 340° North 412 474 27,700 919 Climbing Denver Center
Wed 09:58:16 PM 41.2647 -105.1178 327° Northwest 409 471 28,600 878 Climbing Denver Center
Wed 09:59:17 PM 41.3689 -105.2281 322° Northwest 423 487 29,500 878 Climbing Denver Center
Wed 10:00:19 PM 41.4583 -105.3231 321° Northwest 428 493 30,400 927 Climbing Denver Center
Wed 10:01:20 PM 41.5467 -105.4194 321° Northwest 427 491 31,400 780 Climbing Denver Center
Wed 10:02:22 PM 41.6486 -105.5278 322° Northwest 421 484 32,000 290 Climbing Denver Center
Wed 10:03:24 PM 41.7406 -105.6275 321° Northwest 435 501 32,000  Level Denver Center
Wed 10:04:25 PM 41.8481 -105.7444 321° Northwest 443 510 32,000  Level Denver Center
Wed 10:05:27 PM 41.9394 -105.8447 321° Northwest 442 509 32,000  Level Denver Center
Wed 10:06:29 PM 42.0444 -105.9606 321° Northwest 438 504 32,000  Level Denver Center
Wed 10:07:30 PM 42.1317 -106.0575 321° Northwest 430 495 32,000  Level Denver Center
Wed 10:08:32 PM 42.2194 -106.1544 321° Northwest 426 490 32,000  Level Denver Center
Wed 10:09:34 PM 42.3203 -106.2681 320° Northwest 424 488 32,000  Level Denver Center
Wed 10:10:35 PM 42.4078 -106.3642 321° Northwest 423 487 32,000  Level Denver Center
Wed 10:11:37 PM 42.5089 -106.4786 320° Northwest 422 486 32,000  Level Denver Center
Wed 10:12:38 PM 42.5811 -106.5614 320° Northwest 425 489 32,000  Level Denver Center
Wed 10:13:52 PM 42.6803 -106.6819 318° Northwest 428 493 32,000  Level Denver Center
Wed 10:15:07 PM 42.8069 -106.8367 318° Northwest 427 491 32,000  Level Denver Center
Wed 10:16:08 PM 42.9056 -106.9581 318° Northwest 428 493 32,000  Level Denver Center
Wed 10:17:10 PM 42.9897 -107.0633 318° Northwest 428 493 32,000  Level Denver Center
Wed 10:18:11 PM 43.0883 -107.1853 318° Northwest 429 494 32,000  Level Denver Center
Wed 10:19:13 PM 43.1739 -107.2958 317° Northwest 426 490 32,000  Level Denver Center
Wed 10:20:15 PM 43.2581 -107.4033 317° Northwest 431 496 32,000  Level Denver Center
Wed 10:20:43 PM 43.3000 -107.4561 318° Northwest 429 494 32,000  Level Salt Lake Center
Wed 10:21:45 PM 43.3978 -107.5839 317° Northwest 434 499 32,000  Level Salt Lake Center
Wed 10:22:46 PM 43.4817 -107.6906 317° Northwest 429 494 32,000  Level Salt Lake Center
Wed 10:23:47 PM 43.5647 -107.7983 317° Northwest 429 494 32,000  Level Salt Lake Center
Wed 10:24:49 PM 43.6625 -107.9242 317° Northwest 430 495 32,000 -976 Level Salt Lake Center
Wed 10:25:50 PM 43.7461 -108.0328 317° Northwest 430 495 30,000 -2,780 Descending Salt Lake Center
Wed 10:26:52 PM 43.8433 -108.1606 317° Northwest 431 496 26,300 -3,366 Descending Salt Lake Center
Wed 10:27:53 PM 43.9247 -108.2669 317° Northwest 420 483 23,100 -3,073 Descending Salt Lake Center
Wed 10:28:55 PM 44.0028 -108.3708 316° Northwest 411 473 20,000 -2,976 Descending Salt Lake Center
Wed 10:29:56 PM 44.0886 -108.4847 316° Northwest 393 452 17,000 -2,754 Descending Salt Lake Center
Wed 10:30:57 PM 44.1597 -108.5778 317° Northwest 381 438 14,400 -2,439 Descending Salt Lake Center
Wed 10:31:59 PM 44.2244 -108.6650 316° Northwest 363 418 12,000 -2,146 Descending Salt Lake Center
Wed 10:33:00 PM 44.2964 -108.7600 317° Northwest 339 390 10,000 -1,220 Descending Salt Lake Center
Wed 10:34:02 PM 44.3481 -108.8244 318° Northwest 298 343 9,500 -927 Descending Salt Lake Center
Wed 10:35:03 PM 44.3964 -108.8928 315° West 251 289 8,100 -1,377 Descending Salt Lake Center

Login

Don't have an account? Register now (free) for customized features, flight alerts, and more!